Nearby METAR Reports

 

KPTW - Pottstown, Pennsylvania, USA
Distance from station: NE 6mi, 10km
Updated: 11/23/2017 6:54pm
Clear
Clear
 Wind from calm
Wind: Calm
Temperature: 28°F , -2°C
Dew Point: 19°F , -7°C
Humidity: 69%
Barometer: 30.05 inHg , 1017.6 hPa
Clouds: Clear
Visibility: 10 miles , 16 km
2017/11/23 23:54 KPTW 232354Z AUTO 00000KT 10SM CLR M02/M07 A3005 RMK AO2 SLP179 T10171067 10044 21017 50001
KMQS - Coatesville, Pennsylvania, USA
Distance from station: SW 18mi, 29km
Updated: 11/23/2017 6:55pm
Clear
Clear
 Wind from W
Wind: W 3 mph , 6 km/h
Temperature: 30°F , -1°C
Dew Point: 21°F , -6°C
Humidity: 69%
Barometer: 30.04 inHg , 1017.3 hPa
Clouds: Clear
Visibility: 10 miles , 16 km
2017/11/23 23:55 KMQS 232355Z AUTO 28003KT 10SM CLR M01/M06 A3004 RMK AO2
 
KLOM - Philly Wings F, Pennsylvania, USA
Distance from station: E 19mi, 31km
Updated: 11/23/2017 6:55pm
Clear
Clear
 Wind from calm
Wind: Calm
Temperature: 28°F , -2°C
Dew Point: 25°F , -4°C
Humidity: 86%
Barometer: 30.06 inHg , 1017.9 hPa
Clouds: Clear
Visibility: 10 miles , 16 km
2017/11/23 23:55 KLOM 232355Z AUTO 00000KT 10SM CLR M02/M04 A3006 RMK AO1
KRDG - Reading, Pennsylvania, USA
Distance from station: NW 22mi, 36km
Updated: 11/23/2017 6:54pm
Clear
Clear
 Wind from calm
Wind: Calm
Temperature: 34°F , 1°C
Dew Point: 23°F , -5°C
Humidity: 65%
Barometer: 30.03 inHg , 1016.9 hPa
Clouds: Clear
Visibility: 10 miles , 16 km
2017/11/23 23:54 KRDG 232354Z AUTO 00000KT 10SM CLR 01/M05 A3003 RMK AO2 SLP179 T00061050 10050 20006 58000
 
KUKT - Quakertown Arp, Pennsylvania, USA
Distance from station: NE 22mi, 36km
Updated: 11/23/2017 6:55pm
Clear
Clear
 Wind from calm
Wind: Calm
Temperature: 28°F , -2°C
Dew Point: 23°F , -5°C
Humidity: 80%
Barometer: 30.04 inHg , 1017.3 hPa
Clouds: Clear
Visibility: 10 miles , 16 km
2017/11/23 23:55 KUKT 232355Z AUTO 00000KT 10SM CLR M02/M05 A3004 RMK AO1
KXLL - Allentown Queen, Pennsylvania, USA
Distance from station: NNE 28mi, 46km
Updated: 11/23/2017 6:55pm
Clear
Clear
 Wind from SSW
Wind: SSW 3 mph , 6 km/h
Temperature: 34°F , 1°C
Dew Point: 21°F , -6°C
Humidity: 60%
Barometer: 30.04 inHg , 1017.3 hPa
Clouds: Clear
Visibility: 10 miles , 16 km
2017/11/23 23:55 KXLL 232355Z AUTO 20003KT 10SM CLR 01/M06 A3004 RMK AO2
 
KDYL - Doylestown, Pennsylvania, USA
Distance from station: ENE 29mi, 47km
Updated: 11/23/2017 6:54pm
Clear
Clear
 Wind from calm
Wind: Calm
Temperature: 32°F , 0°C
Dew Point: 18°F , -8°C
Humidity: 55%
Barometer: 30.03 inHg , 1016.9 hPa
Clouds: Clear
Visibility: 10 miles , 16 km
2017/11/23 23:54 KDYL 232354Z AUTO 00000KT 10SM CLR 00/M08 A3003 RMK AO2 SLP177 T00001078 10050 20000 50003
KPHL - Philadelphia, Pennsylvania, USA
Distance from station: SE 30mi, 48km
Updated: 11/23/2017 6:54pm
Clear
Clear
 Wind from W
Wind: W 10 mph , 17 km/h
Temperature: 39°F , 4°C
Wind Chill: 32°F , 0°C
Dew Point: 19°F , -7°C
Humidity: 45%
Barometer: 30.06 inHg , 1017.9 hPa
Clouds: Clear
Visibility: 10 miles , 16 km
2017/11/23 23:54 KPHL 232354Z 28009KT 10SM CLR 04/M07 A3006 RMK AO2 SLP178 T00391067 10056 20039 50003
 
KPNE - Philadelphia/Ne, Pennsylvania, USA
Distance from station: E 33mi, 53km
Updated: 11/23/2017 6:54pm
Clear
Clear
 Wind from calm
Wind: Calm
Temperature: 36°F , 2°C
Dew Point: 19°F , -7°C
Humidity: 52%
Barometer: 30.06 inHg , 1017.9 hPa
Clouds: Clear
Visibility: 10 miles , 16 km
2017/11/23 23:54 KPNE 232354Z AUTO 00000KT 10SM CLR 02/M07 A3006 RMK AO2 SLP181 T00221067 10061 20022 50003
KABE - Allentown, Pennsylvania, USA
Distance from station: NNE 34mi, 55km
Updated: 11/23/2017 6:51pm
Clear
Clear
 Wind from WSW
Wind: WSW 6 mph , 9 km/h
Temperature: 30°F , -1°C
Wind Chill: 24°F , -4°C
Dew Point: 19°F , -7°C
Humidity: 64%
Barometer: 30.03 inHg , 1016.9 hPa
Clouds: Clear
Visibility: 10 miles , 16 km
2017/11/23 23:51 KABE 232351Z 24005KT 10SM CLR M01/M07 A3003 RMK AO2 SLP172 T10061072 10056 21006 50002 $
 
KILG - Wilmington, Delaware, USA
Distance from station: S 35mi, 56km
Updated: 11/23/2017 6:51pm
Clear
Clear
 Wind from calm
Wind: Calm
Temperature: 36°F , 2°C
Dew Point: 21°F , -6°C
Humidity: 56%
Barometer: 30.07 inHg , 1018.3 hPa
Clouds: Clear
Visibility: 10 miles , 16 km
2017/11/23 23:51 KILG 232351Z 00000KT 10SM CLR 02/M06 A3007 RMK AO2 SLP182 T00171056 10061 20017 50001
KLNS - Lancaster, Pennsylvania, USA
Distance from station: W 36mi, 57km
Updated: 11/23/2017 6:53pm
Clear
Clear
 Wind from calm
Wind: Calm
Temperature: 36°F , 2°C
Dew Point: 23°F , -5°C
Humidity: 60%
Barometer: 30.04 inHg , 1017.3 hPa
Clouds: Clear
Visibility: 10 miles , 16 km
2017/11/23 23:53 KLNS 232353Z 00000KT 10SM CLR 02/M05 A3004 RMK AO2 SLP175 T00171050 10056 20011 58002
 
KTTN - Trenton, New Jersey, USA
Distance from station: E 44mi, 70km
Updated: 11/23/2017 6:53pm
Clear
Clear
 Wind from W
Wind: W 6 mph , 9 km/h
Temperature: 37°F , 3°C
Wind Chill: 32°F , 0°C
Dew Point: 19°F , -7°C
Humidity: 48%
Barometer: 30.03 inHg , 1016.9 hPa
Clouds: Clear
Visibility: 10 miles , 16 km
2017/11/23 23:53 KTTN 232353Z 27005KT 10SM CLR 03/M07 A3003 RMK AO2 SLP166 T00281072 10056 20022 50002
KVAY - Mount Holly, New Jersey, USA
Distance from station: ESE 45mi, 73km
Updated: 11/23/2017 6:54pm
Clear
Clear
 Wind from calm
Wind: Calm
Temperature: 28°F , -2°C
Dew Point: 21°F , -6°C
Humidity: 74%
Barometer: 30.05 inHg , 1017.6 hPa
Clouds: Clear
Visibility: 10 miles , 16 km
2017/11/23 23:54 KVAY 232354Z AUTO 00000KT 10SM CLR M02/M06 A3005 RMK AO2 SLP177 T10171056 10050 21017 53000 $
 
KMUI - Muir Aaf/Indiant, Pennsylvania, USA
Distance from station: WNW 52mi, 84km
Updated: 11/23/2017 6:56pm
Clear
Clear
 Wind from calm
Wind: Calm
Temperature: 30°F , -1°C
Dew Point: 23°F , -5°C
Humidity: 75%
Barometer: 30.02 inHg , 1016.6 hPa
Clouds: Clear
Visibility: 10 miles , 16 km
2017/11/23 23:56 KMUI 232356Z AUTO 00000KT 10SM CLR M01/M05 A3002 RMK AO2 SLP175 T10111051 10048 21014 58002 TSNO $
KAPG - Aberdeen/Phillip, Maryland, USA
Distance from station: SSW 56mi, 91km
Updated: 11/23/2017 6:58pm
Clear
Clear
 Wind from calm
Wind: Calm
Temperature: 30°F , -1°C
Dew Point: 25°F , -4°C
Humidity: 80%
Barometer: 30.06 inHg , 1017.9 hPa
Clouds: Clear
Visibility: 10 miles , 16 km
2017/11/23 23:58 KAPG 232358Z AUTO 00000KT 10SM CLR M01/M04 A3006 RMK AO2 SLP183 T10111040 10065 21015 58002 $
 
KWRI - Wrightst/Mcguire, New Jersey, USA
Distance from station: E 56mi, 91km
Updated: 11/23/2017 6:56pm
Clear
Clear
 Wind from calm
Wind: Calm
Temperature: 30°F , -1°C
Dew Point: 21°F , -6°C
Humidity: 69%
Barometer: 30.02 inHg , 1016.6 hPa
Clouds: Clear
Visibility: 10 miles , 16 km
2017/11/23 23:56 KWRI 232356Z AUTO 00000KT 10SM R24/4500FT CLR M01/M06 A3002 RMK AO2 SLP167 T10121058 10051 21015 55000 $
KSMQ - Somerville, New Jersey, USA
Distance from station: ENE 59mi, 96km
Updated: 11/23/2017 6:53pm
Clear
Clear
 Wind from calm
Wind: Calm
Temperature: 28°F , -2°C
Dew Point: 23°F , -5°C
Humidity: 80%
Barometer: 30.02 inHg , 1016.6 hPa
Clouds: Clear
Visibility: 10 miles , 16 km
2017/11/23 23:53 KSMQ 232353Z AUTO 00000KT 10SM CLR M02/M05 A3002 RMK AO2 SLP169 T10171050 10072 21022 51006
 
KMDT - Middletown, Pennsylvania, USA
Distance from station: W 60mi, 97km
Updated: 11/23/2017 6:56pm
Partly Cloudy
Partly Cloudy
 Wind from ESE
Wind: ESE 3 mph , 6 km/h
Temperature: 34°F , 1°C
Dew Point: 25°F , -4°C
Humidity: 70%
Barometer: 30.03 inHg , 1016.9 hPa
Clouds: Partly Cloudy
Visibility: 10 miles , 16 km
Cloud details: Partly Cloudy 25000 ft
2017/11/23 23:56 KMDT 232356Z 12003KT 10SM SCT250 01/M04 A3003 RMK AO2 SLP173 T00111039 10056 21006 58003
KMIV - Millville, New Jersey, USA
Distance from station: SSE 63mi, 101km
Updated: 11/23/2017 6:54pm
Clear
Clear
 Wind from calm
Wind: Calm
Temperature: 27°F , -3°C
Dew Point: 25°F , -4°C
Humidity: 93%
Barometer: 30.06 inHg , 1017.9 hPa
Clouds: Clear
Visibility: 10 miles , 16 km
2017/11/23 23:54 KMIV 232354Z AUTO 00000KT 10SM CLR M03/M04 A3006 RMK AO2 SLP179 T10281044 10056 21033 56000